Flight Track Log - Related Links

Times and Time Zones

All times are in EDT time to prevent confusion due to time zone crossing. See the FLG4262 flight status page for this flight to view local times or setup timezone preferences in your user account.

Time Position Orientation Groundspeed Altitude Reporting Facility
EDT Latitude Longitude Course Direction KTS MPH feet Rate Location/Type
Thu 05:28:26 PM 42.2797 -76.1644 289° West 237 273 7,200  Level Cleveland Center
Thu 05:29:00 PM 42.2245 -76.5083 291° West  Level Estimated
Thu 05:29:28 PM 42.3069 -76.2636 290° West 271 312 9,500  Level Cleveland Center
Thu 05:30:00 PM 42.2281 -76.6405 287° West  Level Estimated
Thu 05:30:30 PM 42.3372 -76.3717 291° West 303 349 10,900  Level Cleveland Center
Thu 05:31:00 PM 42.2316 -76.7727 294° West  Level Estimated
Thu 05:31:32 PM 42.3678 -76.4861 290° West 338 389 12,000  Level Cleveland Center
Thu 05:32:34 PM 42.4108 -76.6411 291° West 366 421 13,800 1,645 Climbing Cleveland Center
Thu 05:33:36 PM 42.4472 -76.7731 291° West 372 428 15,400 1,488 Climbing Cleveland Center
Thu 05:34:39 PM 42.4811 -76.9033 289° West 370 426 16,900 1,248 Climbing Cleveland Center
Thu 05:35:41 PM 42.5167 -77.0372 290° West 376 433 18,000 1,016 Climbing Cleveland Center
Thu 05:36:43 PM 42.5519 -77.1731 289° West 381 438 19,000 1,065 Climbing Cleveland Center
Thu 05:37:45 PM 42.5958 -77.3403 290° West 392 451 20,200 1,016 Climbing Cleveland Center
Thu 05:38:47 PM 42.6283 -77.4633 290° West 393 452 21,100 677 Climbing Cleveland Center
Thu 05:39:49 PM 42.6650 -77.6064 289° West 399 459 21,600 581 Climbing Cleveland Center
Thu 05:40:51 PM 42.7128 -77.7875 290° West 415 478 22,300 576 Climbing Cleveland Center
Thu 05:41:54 PM 42.7508 -77.9381 289° West 422 486 22,800 484 Climbing Cleveland Center
Thu 05:42:55 PM 42.7892 -78.0897 289° West 425 489 23,300 488 Climbing Cleveland Center
Thu 05:43:57 PM 42.8286 -78.2428 289° West 429 494 23,800 339 Climbing Cleveland Center
Thu 05:44:59 PM 42.8325 -78.4000 272° West 416 479 24,000 96 Climbing Cleveland Center
Thu 05:46:02 PM 42.8333 -78.5558 270° West 412 474 24,000  Level Cleveland Center
Thu 05:47:04 PM 42.8333 -78.7439 270° West 415 478 24,000  Level Cleveland Center
Thu 05:48:06 PM 42.8283 -78.9000 268° West 414 476 24,000  Level Cleveland Center
Thu 05:49:08 PM 42.8153 -79.0583 264° West 420 483 24,000  Level Cleveland Center
Thu 05:50:10 PM 42.8022 -79.2161 264° West 421 484 24,000  Level Cleveland Center
Thu 05:51:12 PM 42.7883 -79.3783 263° West 431 496 24,000  Level Cleveland Center
Thu 05:52:14 PM 42.7731 -79.5758 264° West 440 506 24,000  Level Cleveland Center
Thu 05:53:16 PM 42.7606 -79.7375 264° West 432 497 24,000  Level Cleveland Center
Thu 05:54:18 PM 42.7469 -79.8967 263° West 427 491 24,000  Level Cleveland Center
Thu 05:55:20 PM 42.7325 -80.0733 264° West 433 498 24,000  Level Cleveland Center
Thu 05:56:23 PM 42.7181 -80.2358 263° West 431 496 24,000  Level Cleveland Center
Thu 05:57:25 PM 42.7047 -80.4042 264° West 441 507 24,000  Level Cleveland Center
Thu 05:58:27 PM 42.6906 -80.5703 263° West 441 507 24,000  Level Cleveland Center
Thu 05:59:29 PM 42.6767 -80.7414 264° West 449 517 24,000  Level Cleveland Center
Thu 06:00:31 PM 42.6628 -80.9086 264° West 447 514 24,000  Level Cleveland Center
Thu 06:01:33 PM 42.6478 -81.0753 263° West 444 511 24,000  Level Cleveland Center
Thu 06:02:35 PM 42.6303 -81.2692 263° West 442 509 24,000 -823 Level Cleveland Center
Thu 06:03:37 PM 42.6150 -81.4336 263° West 437 503 22,300 -1,597 Descending Cleveland Center
Thu 06:04:39 PM 42.6022 -81.5819 263° West 425 489 20,700 -1,113 Descending Cleveland Center
Thu 06:05:41 PM 42.5864 -81.7458 263° West 414 476 20,000 -774 Descending Cleveland Center
Thu 06:06:43 PM 42.5719 -81.8903 262° West 414 476 19,100 -1,452 Descending Cleveland Center
Thu 06:07:45 PM 42.5542 -82.0708 262° West 404 465 17,000 -1,968 Descending Cleveland Center
Thu 06:08:48 PM 42.5403 -82.2175 263° West 396 456 15,000 -1,872 Descending Cleveland Center
Thu 06:09:50 PM 42.5267 -82.3589 263° West 386 444 13,100 -2,063 Descending Cleveland Center
Thu 06:09:52 PM 42.5256 -82.3847 267° West 380 437 12,800 -1,031 Descending Cleveland Center
Thu 06:10:54 PM 42.5119 -82.5189 262° West 336 387 12,000 -615 Descending Cleveland Center
Thu 06:11:49 PM 42.4819 -82.6167 247° West 314 361 11,600 -300 Descending Cleveland Center
Thu 06:11:54 PM 42.4844 -82.6058 73° East 318 366 11,700 -1,475 Climbing Cleveland Center
Thu 06:12:50 PM 42.4450 -82.7250 246° West 309 356 10,100 -1,742 Descending Cleveland Center
Thu 06:12:56 PM 42.4397 -82.7333 229° Southwest 314 361 9,900 -968 Descending Cleveland Center
Thu 06:13:52 PM 42.4081 -82.8275 246° West 288 331 9,100 -871 Descending Cleveland Center
Thu 06:13:58 PM 42.4050 -82.8311 221° Southwest 296 341 9,000 -1,082 Descending Cleveland Center
Thu 06:14:53 PM 42.4322 -82.9269 291° West 279 321 8,000 -968 Descending Cleveland Center
Thu 06:15:00 PM 42.4317 -82.9292 251° West 286 329 8,000 98 Level Cleveland Center
Thu 06:15:54 PM 42.4603 -83.0269 292° West 284 327 8,100  Climbing Cleveland Center
Thu 06:16:02 PM 42.4597 -83.0269 180° South 280 322 8,000 -98 Descending Cleveland Center
Thu 06:16:55 PM 42.4956 -83.1167 298° West 240 276 8,000  Level Cleveland Center
Thu 06:17:04 PM 42.4944 -83.1136 116° Southeast 268 308 8,000 -871 Level Cleveland Center
Thu 06:17:57 PM 42.4567 -83.1875 235° Southwest 233 268 7,100 -968 Descending Cleveland Center
Thu 06:18:06 PM 42.4581 -83.1828 68° East 244 281 7,000 -1,377 Descending Cleveland Center
Thu 06:18:58 PM 42.3994 -83.2247 208° Southwest 216 249 5,700 -1,548 Descending Cleveland Center
Thu 06:19:08 PM 42.3919 -83.2281 198° South 225 259 5,400 -1,672 Descending Cleveland Center
Thu 06:19:59 PM 42.3483 -83.2631 211° Southwest 190 219 4,000 -1,548 Descending Cleveland Center
Thu 06:20:10 PM 42.3431 -83.2661 203° Southwest 211 243 3,800 -1,574 Descending Cleveland Center
Thu 06:21:00 PM 42.3081 -83.2939 210° Southwest 153 176 2,400 -1,452 Descending Cleveland Center
Thu 06:21:12 PM 42.3031 -83.2953 192° South 173 199 2,300 -720 Descending Cleveland Center
Thu 06:22:15 PM 42.2672 -83.3219 209° Southwest 151 174 1,500 -757 Descending Cleveland Center
Thu 06:23:03 PM 42.2347 -83.3486 211° Southwest 148 170 900 -484 Descending Cleveland Center
Thu 06:23:17 PM 42.2272 -83.3514 195° South 148 170 1,000 429 Climbing Cleveland Center

Login

Don't have an account? Register now (free) for customized features, flight alerts, and more!